ADDS METAR Data INFO
IDs: Format: Raw Decoded Include TAF

Data at: 0902 UTC 20 Oct 2017

KRCZ 200840Z AUTO 00000KT 10SM CLR 07/07 A3023 RMK AO2 T00680068
KRCZ 200820Z AUTO 00000KT 10SM CLR 07/07 A3023 RMK AO2 T00710071
KRCZ 200800Z AUTO 00000KT 10SM CLR 08/08 A3023 RMK AO2 T00800080
KRCZ 200740Z AUTO 00000KT 10SM CLR 08/08 A3022 RMK AO2 T00820082
KRCZ 200720Z AUTO 00000KT 10SM CLR 08/08 A3023 RMK AO2 T00840084
KRCZ 200700Z AUTO 00000KT 10SM CLR 09/09 A3023 RMK AO2 T00860086
KRCZ 200640Z AUTO 00000KT 10SM CLR 08/08 A3023 RMK AO2 T00820082
KRCZ 200620Z AUTO 00000KT 09/08 A3023 RMK AO2 T00890084 PWINO
KRCZ 200600Z AUTO 00000KT 10SM CLR 09/08 A3023 RMK AO2 T00860084
KRCZ 200540Z AUTO 00000KT 10SM CLR 09/09 A3023 RMK AO2 T00910086
KRCZ 200520Z AUTO 00000KT 10SM CLR 10/09 A3023 RMK AO2 T00990094
KRCZ 200500Z AUTO 00000KT 10SM CLR 10/09 A3023 RMK AO2 T00950090
KRCZ 200440Z AUTO 00000KT 10SM CLR 10/10 A3023 RMK AO2 T01000099
KRCZ 200420Z AUTO 00000KT 10SM CLR 10/10 A3023 RMK AO2 T01020102
KRCZ 200400Z AUTO 00000KT 10SM CLR 11/11 A3024 RMK AO2 T01090109
KRCZ 200340Z AUTO 00000KT 10SM CLR 11/10 A3024 RMK AO2 T01060101
KRCZ 200320Z AUTO 00000KT 10SM CLR 10/10 A3024 RMK AO2 T01030098
KRCZ 200300Z AUTO 00000KT 10SM CLR 12/10 A3024 RMK AO2 T01150102
KRCZ 200240Z AUTO 00000KT 10SM CLR 12/10 A3024 RMK AO2 T01160101
KRCZ 200220Z AUTO 00000KT 10SM CLR 12/11 A3024 RMK AO2 T01150105
KRCZ 200200Z AUTO 00000KT 10SM CLR 13/10 A3023 RMK AO2 T01260101
KRCZ 200140Z AUTO 00000KT 10SM CLR 13/10 A3023 RMK AO2 T01300104
KRCZ 200120Z AUTO 00000KT 10SM CLR 15/10 A3023 RMK AO2 T01450101
KRCZ 200100Z AUTO 00000KT 10SM CLR 15/10 A3023 RMK AO2 T01520101
KRCZ 200040Z AUTO 00000KT 10SM CLR 16/11 A3023 RMK AO2 T01560109
KRCZ 200020Z AUTO 00000KT 10SM CLR 16/11 A3023 RMK AO2 T01600107
KRCZ 200000Z AUTO 00000KT 10SM CLR 17/11 A3022 RMK AO2 T01660110
KRCZ 192340Z AUTO 00000KT 10SM CLR 18/11 A3022 RMK AO2 T01790110
KRCZ 192320Z AUTO 00000KT 10SM CLR 18/11 A3022 RMK AO2 T01800114
KRCZ 192300Z AUTO 00000KT 10SM CLR 19/12 A3021 RMK AO2 T01920119
KRCZ 192240Z AUTO 00000KT 10SM CLR 21/11 A3021 RMK AO2 T02080106
KRCZ 192220Z AUTO 00000KT 10SM CLR 22/10 A3021 RMK AO2 T02200096
KRCZ 192200Z AUTO 00000KT 10SM CLR 23/09 A3021 RMK AO2 T02300091
KRCZ 192140Z AUTO 00000KT 10SM CLR 23/09 A3021 RMK AO2 T02320089
KRCZ 192120Z AUTO 00000KT 10SM CLR 23/09 A3021 RMK AO2 T02330090
KRCZ 192100Z AUTO 00000KT 10SM CLR 23/09 A3021 RMK AO2 T02330089
KRCZ 192040Z AUTO 00000KT 10SM CLR 24/11 A3021 RMK AO2 T02360106
KRCZ 192020Z AUTO 00000KT 10SM CLR 23/10 A3022 RMK AO2 T02320100
KRCZ 192000Z AUTO 00000KT 10SM CLR 23/09 A3023 RMK AO2 T02330093
KRCZ 191940Z AUTO 33005KT 10SM CLR 23/09 A3023 RMK AO2 T02280094
KRCZ 191855Z AUTO 00000KT 10SM CLR 23/11 A3023 RMK AO2 T02270108
KRCZ 191840Z AUTO 00000KT 10SM CLR 22/12 A3024 RMK AO2 T02220118
KRCZ 191820Z AUTO 29003KT 10SM CLR 22/12 A3024 RMK AO2 T02210117
KRCZ 191800Z AUTO 00000KT 10SM CLR 22/12 A3025 RMK AO2 T02170118
KRCZ 191740Z AUTO 00000KT 10SM CLR 22/11 A3026 RMK AO2 T02150114
KRCZ 191720Z AUTO 00000KT 10SM CLR 21/12 A3027 RMK AO2 T02120115
KRCZ 191700Z AUTO 00000KT 10SM CLR 21/11 A3028 RMK AO2 T02110105
KRCZ 191640Z AUTO 00000KT 10SM CLR 20/11 A3029 RMK AO2 T02000107
KRCZ 191620Z AUTO 07003KT 10SM CLR 20/12 A3030 RMK AO2 T01960119
KRCZ 191600Z AUTO 31003KT 10SM CLR 19/12 A3031 RMK AO2 T01930118
KRCZ 191540Z AUTO 02003KT 10SM CLR 19/11 A3032 RMK AO2 T01880112
KRCZ 191520Z AUTO 03005KT 10SM CLR 19/11 A3032 RMK AO2 T01850114
KRCZ 191500Z AUTO 33004KT 10SM SCT030 17/12 A3033 RMK AO2 T01730124
KRCZ 191440Z AUTO 34004KT 10SM SCT028 16/12 A3033 RMK AO2 T01620121
KRCZ 191420Z AUTO 00000KT 10SM CLR 15/12 A3033 RMK AO2 T01530116
KRCZ 191400Z AUTO 34003KT 10SM CLR 14/11 A3033 RMK AO2 T01400107
KRCZ 191340Z AUTO 05003KT 10SM CLR 13/10 A3031 RMK AO2 T01270100
KRCZ 191320Z AUTO 00000KT 10SM CLR 11/09 A3031 RMK AO2 T01110089
KRCZ 191300Z AUTO 36003KT 10SM CLR 10/08 A3030 RMK AO2 T00970078
KRCZ 191240Z AUTO 00000KT 10SM CLR 09/07 A3030 RMK AO2 T00870072
KRCZ 191220Z AUTO 00000KT 10SM CLR 07/07 A3030 RMK AO2 T00720065
KRCZ 191200Z AUTO 00000KT 10SM CLR 06/06 A3030 RMK AO2 T00630061
KRCZ 191140Z AUTO 00000KT 10SM CLR 06/06 A3029 RMK AO2 T00610060
KRCZ 191120Z AUTO 00000KT 10SM CLR 06/06 A3030 RMK AO2 T00620058
KRCZ 191100Z AUTO 34004KT 10SM CLR 06/06 A3029 RMK AO2 T00630060
KRCZ 191040Z AUTO 00000KT 10SM CLR 06/06 A3029 RMK AO2 T00630060
KRCZ 191020Z AUTO 02003KT 10SM CLR 06/06 A3028 RMK AO2 T00640060
KRCZ 191000Z AUTO 02003KT 10SM CLR 06/06 A3028 RMK AO2 T00610059
KRCZ 190940Z AUTO 00000KT 10SM CLR 07/06 A3028 RMK AO2 T00660061
KRCZ 190920Z AUTO 00000KT 10SM CLR 07/06 A3028 RMK AO2 T00680060
KRCZ 190900Z AUTO 02003KT 10SM CLR 07/06 A3028 RMK AO2 T00700061
KRCZ 190840Z AUTO 03003KT 10SM CLR 07/06 A3028 RMK AO2 T00680061
KRCZ 190820Z AUTO 01003KT 10SM CLR 07/06 A3028 RMK AO2 T00680061
KRCZ 190800Z AUTO 36004KT 10SM CLR 07/06 A3029 RMK AO2 T00700063
KRCZ 190740Z AUTO 01003KT 10SM CLR 07/06 A3029 RMK AO2 T00700060
KRCZ 190720Z AUTO 03003KT 10SM CLR 07/06 A3029 RMK AO2 T00720058
KRCZ 190700Z AUTO 03003KT 10SM CLR 07/06 A3029 RMK AO2 T00710060
KRCZ 190640Z AUTO 01003KT 10SM CLR 07/06 A3029 RMK AO2 T00720061
KRCZ 190620Z AUTO 03003KT 10SM CLR 08/06 A3029 RMK AO2 T00750062
KRCZ 190600Z AUTO 03004KT 10SM CLR 08/06 A3030 RMK AO2 T00770062
KRCZ 190540Z AUTO 04003KT 10SM CLR 08/06 A3030 RMK AO2 T00830062
KRCZ 190520Z AUTO 02003KT 10SM CLR 08/06 A3030 RMK AO2 T00810062
KRCZ 190500Z AUTO 00000KT 10SM CLR 09/06 A3030 RMK AO2 T00850063
KRCZ 190440Z AUTO 02004KT 10SM CLR 08/06 A3030 RMK AO2 T00830064
KRCZ 190420Z AUTO 03004KT 10SM CLR 08/07 A3030 RMK AO2 T00840066
KRCZ 190400Z AUTO 02003KT 10SM CLR 09/07 A3031 RMK AO2 T00870069
KRCZ 190340Z AUTO 02003KT 7SM CLR 09/07 A3031 RMK AO2 T00850070
KRCZ 190320Z AUTO 00000KT 7SM CLR 10/07 A3032 RMK AO2 T00950071
KRCZ 190300Z AUTO 00000KT 5SM HZ CLR 10/07 A3032 RMK AO2 T00970070
KRCZ 190240Z AUTO 00000KT 10SM CLR 10/06 A3032 RMK AO2 T01030061
KRCZ 190220Z AUTO 00000KT 7SM CLR 12/06 A3032 RMK AO2 T01150055
KRCZ 190200Z AUTO 00000KT 10SM CLR 12/06 A3032 RMK AO2 T01210059
KRCZ 190140Z AUTO 07003KT 10SM CLR 12/06 A3032 RMK AO2 T01170060
KRCZ 190120Z AUTO 00000KT 10SM CLR 12/06 A3032 RMK AO2 T01180055
KRCZ 190100Z AUTO 00000KT 10SM CLR 13/05 A3032 RMK AO2 T01310048
KRCZ 190040Z AUTO 00000KT 10SM CLR 14/04 A3033 RMK AO2 T01420043
KRCZ 190020Z AUTO 00000KT 10SM CLR 14/05 A3032 RMK AO2 T01380048
KRCZ 190000Z AUTO 00000KT 10SM CLR 15/04 A3031 RMK AO2 T01460041
KRCZ 182340Z AUTO 00000KT 10SM CLR 15/04 A3031 RMK AO2 T01510042
KRCZ 182320Z AUTO 00000KT 10SM CLR 16/04 A3031 RMK AO2 T01580040
KRCZ 182300Z AUTO 00000KT 10SM CLR 17/04 A3030 RMK AO2 T01670038
KRCZ 182240Z AUTO 00000KT 10SM CLR 18/04 A3030 RMK AO2 T01750041
KRCZ 182220Z AUTO 00000KT 10SM CLR 19/04 A3029 RMK AO2 T01860037
KRCZ 182200Z AUTO 00000KT 10SM CLR 19/03 A3029 RMK AO2 T01920030
KRCZ 182140Z AUTO 00000KT 10SM CLR 20/03 A3030 RMK AO2 T01990026
KRCZ 182120Z AUTO 04003KT 10SM CLR 20/02 A3030 RMK AO2 T02030024